UHSS Airport Information

Runway Information
Runway 01 Length 11155 ft width 148 ft
Elevation 44 ft Threshold 0 ft Heading 1
Runway 19 Length 11155 ft Width 148 ft
Elevation 49 ft Threshold 2080 ft Heading 181
Airport Frequencies
Type GCA Name RDR Frequency 120.6 MHZ
Type TWR Name TWR Frequency 120.6 MHZ
Airport Navaids
Type NDB Name Khomutovo Frequency 505 KHZ
Type NDB Name Khomutovo Frequency 505 KHZ
Airport Weather Information & NOTAM
ADDS - METARS form results

(0121 UTC 04 June 2020)
Data provider http://aviationweather.gov/metar/data/
 
METAR text: UHSS 040100Z 18003MPS 9999 NSC 16/11 Q1006 R01/70D NOSIG RMK QFE753/1005
Conditions at: UHSS (JUZNO-SAHALINSK , RU) observed 0100 UTC 04 June 2020
Temperature: 16.0°C (61°F)
Dewpoint: 11.0°C (52°F) [RH = 72%]
Pressure (altimeter): 29.70 inches Hg (1006.0 mb)
Winds: from the S (180 degrees) at 7 MPH (6 knots; 3.1 m/s)
Visibility: 6 or more miles (10+ km)
Ceiling: at least 12,000 feet AGL
Clouds: sky clear below 12,000 feet AGL
Weather: no significant weather observed at this time

METAR text: UHSS 040030Z 18004MPS 9999 NSC 16/11 Q1006 R01/70D NOSIG RMK QFE754/1005
Conditions at: UHSS (JUZNO-SAHALINSK , RU) observed 0030 UTC 04 June 2020
Temperature: 16.0°C (61°F)
Dewpoint: 11.0°C (52°F) [RH = 72%]
Pressure (altimeter): 29.70 inches Hg (1006.0 mb)
Winds: from the S (180 degrees) at 9 MPH (8 knots; 4.1 m/s)
Visibility: 6 or more miles (10+ km)
Ceiling: at least 12,000 feet AGL
Clouds: sky clear below 12,000 feet AGL
Weather: no significant weather observed at this time

Forecast for: UHSS (JUZNO-SAHALINSK , RU)
Text: TAF UHSS 032300Z 0400/0506 20003MPS 9999 BKN030CB
Forecast period: 0000 UTC 04 June 2020 to 0600 UTC 05 June 2020
Forecast type: FROM: standard forecast or significant change
Winds: from the SSW (200 degrees) at 7 MPH (6 knots; 3.1 m/s)
Visibility: 6 or more miles 10+ km)
Ceiling: 3000 feet AGL
Clouds: broken clouds at 3000 feet AGL
Weather: no significant weather forecast for this period